Time;durP1;ratioP1;P1;durP2;ratioP2;P2;SDS_P1;SDS_P2;PMS_P1;PMS_P2;Temp;Humidity;BMP_temperature;BMP_pressure;BME280_temperature;BME280_humidity;BME280_pressure;Samples;Min_cycle;Max_cycle;Signal;HPM_P1;HPM_P2
2021/04/03 00:00:30;;;;;;;22.55;8.10;;;;;;;3.33;100.00;97940.88;5085931;28;20071;-74
2021/04/03 00:02:57;;;;;;;23.92;9.05;;;;;;;3.06;100.00;97952.50;5085748;28;20511;-75
2021/04/03 00:05:25;;;;;;;22.52;9.38;;;;;;;2.80;100.00;97947.25;5085393;28;20495;-76
2021/04/03 00:07:52;;;;;;;29.00;11.18;;;;;;;2.64;100.00;97949.00;5079538;28;20539;-75
2021/04/03 00:10:29;;;;;;;28.98;11.80;;;;;;;2.51;100.00;97944.91;5084820;28;20048;-75
2021/04/03 00:12:56;;;;;;;29.33;11.55;;;;;;;2.43;100.00;97945.34;5083867;28;20048;-74
2021/04/03 00:15:23;;;;;;;46.30;21.23;;;;;;;2.38;100.00;97948.00;5085455;28;20415;-75
2021/04/03 00:17:50;;;;;;;40.50;21.65;;;;;;;2.43;100.00;97952.56;5083786;28;20495;-74
2021/04/03 00:20:18;;;;;;;49.90;24.60;;;;;;;2.44;100.00;97957.66;5085892;28;20091;-74
2021/04/03 00:22:44;;;;;;;40.88;22.20;;;;;;;2.40;100.00;97951.22;5085841;28;20320;-74
2021/04/03 00:25:14;;;;;;;48.50;25.60;;;;;;;2.45;100.00;97945.91;5084130;28;20089;-75
2021/04/03 00:27:42;;;;;;;37.35;14.40;;;;;;;2.30;100.00;97950.31;5085526;28;20047;-75
2021/04/03 00:30:15;;;;;;;29.80;13.82;;;;;;;2.27;100.00;97948.97;5089821;28;20044;-75
2021/04/03 00:32:56;;;;;;;76.63;38.95;;;;;;;2.25;100.00;97951.09;5090073;28;20054;-75
2021/04/03 00:35:26;;;;;;;33.08;13.55;;;;;;;2.32;100.00;97950.88;5089243;28;20463;-74
2021/04/03 00:37:54;;;;;;;38.40;12.30;;;;;;;2.35;100.00;97947.69;5087418;28;20423;-75
2021/04/03 00:40:25;;;;;;;31.00;11.25;;;;;;;2.44;100.00;97946.97;5089329;28;20287;-74
2021/04/03 00:42:52;;;;;;;35.05;13.15;;;;;;;2.46;100.00;97934.16;5088085;28;20048;-75
2021/04/03 00:45:20;;;;;;;32.90;13.57;;;;;;;2.51;100.00;97941.41;5089371;28;20052;-77
2021/04/03 00:47:46;;;;;;;28.17;12.15;;;;;;;2.41;100.00;97939.47;5072083;28;20089;-75
2021/04/03 00:50:16;;;;;;;35.38;13.70;;;;;;;2.45;100.00;97931.75;5071810;28;20040;-76
2021/04/03 00:52:42;;;;;;;31.08;13.85;;;;;;;2.35;100.00;97939.66;5071926;28;20123;-76
2021/04/03 00:55:10;;;;;;;39.10;13.60;;;;;;;2.32;100.00;97935.63;5069942;28;20045;-76
2021/04/03 00:57:37;;;;;;;31.15;12.55;;;;;;;2.33;100.00;97941.78;5071896;28;20053;-74
2021/04/03 01:00:05;;;;;;;29.85;13.68;;;;;;;2.33;100.00;97942.59;5071755;28;20040;-76
2021/04/03 01:02:34;;;;;;;32.72;13.57;;;;;;;2.35;100.00;97928.97;5071540;28;20047;-75
2021/04/03 01:05:01;;;;;;;32.53;14.45;;;;;;;2.31;100.00;97922.56;5071487;28;20078;-74
2021/04/03 01:07:27;;;;;;;34.08;14.15;;;;;;;2.31;100.00;97933.25;5071657;28;20511;-74
2021/04/03 01:09:53;;;;;;;32.97;13.30;;;;;;;2.25;100.00;97923.56;5071310;28;20037;-74
2021/04/03 01:12:35;;;;;;;35.22;13.82;;;;;;;2.21;100.00;97928.63;5070254;28;20067;-74
2021/04/03 01:15:11;;;;;;;37.95;14.13;;;;;;;2.19;100.00;97929.94;5071470;28;20055;-73
2021/04/03 01:17:47;;;;;;;;;;;;;;;2.18;100.00;97929.13;5070977;28;20467;-73
2021/04/03 01:20:29;;;;;;;33.83;13.77;;;;;;;2.24;100.00;97924.63;5069466;28;20396;-74
2021/04/03 01:23:10;;;;;;;51.75;14.35;;;;;;;2.27;100.00;97927.59;5070966;28;20537;-75
2021/04/03 01:25:51;;;;;;;46.78;14.77;;;;;;;2.37;100.00;97930.38;5070996;28;20044;-73
2021/04/03 01:28:43;;;;;;;42.25;14.73;;;;;;;2.39;100.00;97927.44;5071546;28;20044;-76
2021/04/03 01:31:11;;;;;;;43.13;14.75;;;;;;;2.43;100.00;97933.88;5070167;28;20044;-74
2021/04/03 01:33:43;;;;;;;38.63;14.85;;;;;;;2.47;100.00;97935.78;5070992;28;20403;-74
2021/04/03 01:36:22;;;;;;;44.13;16.15;;;;;;;2.62;100.00;97936.94;5071046;28;20045;-75
2021/04/03 01:38:56;;;;;;;46.70;16.38;;;;;;;2.62;100.00;97947.63;5070739;28;20075;-74
2021/04/03 01:41:24;;;;;;;41.33;13.88;;;;;;;2.71;100.00;97941.56;5069263;28;20063;-75
2021/04/03 01:43:53;;;;;;;34.92;13.98;;;;;;;2.77;100.00;97939.72;5071280;28;20051;-75
2021/04/03 01:46:23;;;;;;;36.83;13.27;;;;;;;2.82;100.00;97942.44;5070901;28;20142;-75
2021/04/03 01:48:51;;;;;;;42.53;12.85;;;;;;;2.92;100.00;97947.84;5070731;28;20442;-75
2021/04/03 01:51:19;;;;;;;40.60;13.80;;;;;;;2.98;100.00;97952.97;5070441;28;20439;-75
2021/04/03 01:53:46;;;;;;;46.88;14.82;;;;;;;3.01;100.00;97943.63;5069145;28;20162;-75
2021/04/03 01:56:16;;;;;;;43.17;13.82;;;;;;;3.01;100.00;97943.63;5070690;28;20064;-74
2021/04/03 01:58:44;;;;;;;42.53;13.18;;;;;;;3.10;100.00;97950.09;5070919;28;20037;-75
2021/04/03 02:01:11;;;;;;;41.17;13.27;;;;;;;3.11;100.00;97941.81;5070772;28;20048;-74
2021/04/03 02:03:38;;;;;;;44.50;14.55;;;;;;;3.15;100.00;97945.59;5070168;28;20094;-75
2021/04/03 02:06:05;;;;;;;60.30;14.65;;;;;;;3.23;100.00;97952.31;5070333;28;20049;-76
2021/04/03 02:08:32;;;;;;;47.15;15.25;;;;;;;3.23;100.00;97940.81;5068477;28;20040;-75
2021/04/03 02:11:05;;;;;;;47.25;14.15;;;;;;;3.27;100.00;97947.25;5069136;28;20040;-74
2021/04/03 02:13:32;;;;;;;58.28;14.98;;;;;;;3.33;100.00;97948.91;5069121;28;20420;-74
2021/04/03 02:16:00;;;;;;;53.17;14.73;;;;;;;3.39;100.00;97950.50;5070514;28;20442;-74
2021/04/03 02:18:29;;;;;;;45.17;14.13;;;;;;;3.36;100.00;97941.13;5069744;28;20048;-74
2021/04/03 02:21:01;;;;;;;52.03;15.07;;;;;;;3.34;100.00;97935.25;5069868;28;20051;-74
2021/04/03 02:23:28;;;;;;;53.38;14.05;;;;;;;3.36;100.00;97932.28;5070166;28;20044;-76
2021/04/03 02:25:55;;;;;;;57.47;14.85;;;;;;;3.39;100.00;97940.63;5068774;28;20045;-75
2021/04/03 02:28:23;;;;;;;53.85;13.68;;;;;;;3.43;100.00;97944.38;5070374;28;20048;-76
2021/04/03 02:30:52;;;;;;;55.45;14.57;;;;;;;3.41;100.00;97940.34;5068961;28;20048;-76
2021/04/03 02:33:18;;;;;;;42.13;14.48;;;;;;;3.40;100.00;97936.06;5050686;28;20071;-75
2021/04/03 02:35:44;;;;;;;58.50;14.88;;;;;;;3.44;100.00;97942.50;5071295;28;20045;-74
2021/04/03 02:38:12;;;;;;;54.55;15.85;;;;;;;3.48;100.00;97943.59;5071044;28;20051;-74
2021/04/03 02:40:38;;;;;;;46.30;14.95;;;;;;;3.44;100.00;97951.34;5069603;28;20052;-75
2021/04/03 02:43:19;;;;;;;50.83;15.77;;;;;;;3.43;100.00;97948.94;5070454;28;20040;-75
2021/04/03 02:46:05;;;;;;;57.65;16.10;;;;;;;3.44;100.00;97954.03;5069415;28;20087;-75
2021/04/03 02:48:36;;;;;;;57.40;16.52;;;;;;;3.50;100.00;97947.63;5069854;28;20036;-75
2021/04/03 02:51:05;;;;;;;54.38;15.32;;;;;;;3.48;100.00;97948.97;5069436;28;20072;-75
2021/04/03 02:53:32;;;;;;;56.08;14.77;;;;;;;3.49;100.00;97954.03;5069249;28;20044;-75
2021/04/03 02:56:02;;;;;;;58.17;16.05;;;;;;;3.56;100.00;97961.84;5069528;28;20059;-75
2021/04/03 02:58:32;;;;;;;52.50;14.43;;;;;;;3.55;100.00;97958.34;5069643;28;20044;-75
2021/04/03 03:00:58;;;;;;;48.85;12.95;;;;;;;3.54;100.00;97970.13;5070460;28;20056;-75
2021/04/03 03:03:27;;;;;;;48.83;13.35;;;;;;;3.51;100.00;97959.16;5068963;28;20484;-75
2021/04/03 03:05:59;;;;;;;54.60;14.00;;;;;;;3.52;100.00;97971.44;5068892;28;20049;-74
2021/04/03 03:08:27;;;;;;;56.28;15.38;;;;;;;3.49;100.00;97974.63;5069409;28;20075;-75
2021/04/03 03:10:55;;;;;;;52.85;14.48;;;;;;;3.52;100.00;97968.78;5069050;28;20048;-74
2021/04/03 03:13:22;;;;;;;44.65;13.32;;;;;;;3.50;100.00;97968.22;5068493;28;20273;-76
2021/04/03 03:15:48;;;;;;;45.15;13.85;;;;;;;3.53;100.00;97981.91;5068298;28;20071;-75
2021/04/03 03:18:16;;;;;;;52.47;13.52;;;;;;;3.54;100.00;97980.81;5068273;28;20313;-75
2021/04/03 03:20:45;;;;;;;48.33;13.73;;;;;;;3.45;100.00;97974.38;5068485;28;20040;-75
2021/04/03 03:23:12;;;;;;;53.38;14.25;;;;;;;3.46;100.00;97973.28;5069411;28;20090;-76
2021/04/03 03:25:39;;;;;;;50.25;13.95;;;;;;;3.49;100.00;97975.44;5068837;28;20048;-74
2021/04/03 03:28:06;;;;;;;53.58;14.10;;;;;;;3.49;100.00;97978.13;5069977;28;20048;-75
2021/04/03 03:30:33;;;;;;;48.53;13.60;;;;;;;3.47;100.00;97974.91;5069720;28;20063;-76
2021/04/03 03:32:59;;;;;;;55.20;15.23;;;;;;;3.48;100.00;97987.25;5069902;28;20102;-75
2021/04/03 03:35:26;;;;;;;49.78;13.75;;;;;;;3.47;100.00;97995.50;5084678;28;20062;-75
2021/04/03 03:37:53;;;;;;;49.97;13.43;;;;;;;3.45;100.00;97998.47;5067658;28;20436;-76
2021/04/03 03:40:20;;;;;;;40.17;13.40;;;;;;;3.40;100.00;97998.44;5068936;28;20063;-75
2021/04/03 03:42:47;;;;;;;51.35;12.45;;;;;;;3.40;100.00;98009.13;5069491;28;20045;-74
2021/04/03 03:45:14;;;;;;;63.58;13.15;;;;;;;3.36;100.00;97994.66;5070034;28;20036;-74
2021/04/03 03:47:40;;;;;;;55.70;12.93;;;;;;;3.40;100.00;98005.66;5068522;28;20446;-74
2021/04/03 03:50:08;;;;;;;51.40;12.73;;;;;;;3.37;100.00;97990.91;5069623;28;20036;-74
2021/04/03 03:52:34;;;;;;;52.00;12.30;;;;;;;3.40;100.00;97994.94;5068060;28;20119;-74
2021/04/03 03:55:01;;;;;;;48.15;12.88;;;;;;;3.38;100.00;98000.53;5069137;28;20494;-74
2021/04/03 03:57:27;;;;;;;51.83;13.15;;;;;;;3.39;100.00;97999.50;5069453;28;20455;-75
2021/04/03 03:59:53;;;;;;;53.20;12.65;;;;;;;3.31;100.00;97997.28;5069591;28;20083;-75
2021/04/03 04:02:19;;;;;;;48.88;11.98;;;;;;;3.43;100.00;98010.50;5069233;28;20474;-75
2021/04/03 04:04:46;;;;;;;50.80;12.15;;;;;;;3.47;100.00;98011.56;5073184;28;20062;-75
2021/04/03 04:07:12;;;;;;;53.08;13.75;;;;;;;3.47;100.00;98017.72;5073387;28;20040;-76
2021/04/03 04:09:38;;;;;;;50.47;13.27;;;;;;;3.48;100.00;98005.97;5089911;28;20044;-75
2021/04/03 04:12:07;;;;;;;51.75;12.63;;;;;;;3.54;100.00;98004.91;5077117;28;20055;-75
2021/04/03 04:14:33;;;;;;;50.58;12.52;;;;;;;3.47;100.00;98007.03;5073482;28;20067;-75
2021/04/03 04:17:00;;;;;;;39.67;12.40;;;;;;;3.47;100.00;98006.22;5075370;28;20048;-76
2021/04/03 04:19:26;;;;;;;51.67;12.80;;;;;;;3.44;100.00;98004.06;5074888;28;20049;-74
2021/04/03 04:21:53;;;;;;;43.85;11.85;;;;;;;3.43;100.00;98011.28;5072606;28;20044;-75
2021/04/03 04:24:19;;;;;;;41.72;10.88;;;;;;;3.44;100.00;98015.56;5073503;28;20381;-76
2021/04/03 04:26:45;;;;;;;38.15;11.07;;;;;;;3.48;100.00;98010.50;5073899;28;20056;-74
2021/04/03 04:29:12;;;;;;;38.38;11.45;;;;;;;3.46;100.00;98024.13;5073244;28;20037;-75
2021/04/03 04:31:39;;;;;;;48.95;11.80;;;;;;;3.42;100.00;98017.72;5073065;28;20056;-76
2021/04/03 04:34:06;;;;;;;47.67;11.55;;;;;;;3.35;100.00;98011.78;5071228;28;20430;-75
2021/04/03 04:36:32;;;;;;;38.45;11.20;;;;;;;3.39;100.00;98017.41;5071787;28;20049;-76
2021/04/03 04:38:59;;;;;;;37.25;12.23;;;;;;;3.38;100.00;98023.84;5071347;28;20113;-76
2021/04/03 04:41:25;;;;;;;46.00;11.00;;;;;;;3.44;100.00;98020.91;5072940;28;20307;-77
2021/04/03 04:43:51;;;;;;;39.28;10.70;;;;;;;3.35;100.00;98027.84;5072509;28;20051;-76
2021/04/03 04:46:17;;;;;;;43.58;12.18;;;;;;;3.33;100.00;98032.63;5072374;28;20033;-75
2021/04/03 04:48:43;;;;;;;49.08;11.60;;;;;;;3.33;100.00;98037.19;5072445;28;20487;-76
2021/04/03 04:51:09;;;;;;;54.67;12.73;;;;;;;3.31;100.00;98039.28;5072630;28;20044;-76
2021/04/03 04:53:35;;;;;;;43.05;11.80;;;;;;;3.29;100.00;98039.56;5072816;28;20105;-75
2021/04/03 04:56:01;;;;;;;36.28;10.55;;;;;;;3.21;100.00;98031.22;5072050;28;20048;-75
2021/04/03 04:58:27;;;;;;;31.58;10.68;;;;;;;3.19;100.00;98034.16;5072613;28;20055;-74
2021/04/03 05:00:53;;;;;;;42.00;12.00;;;;;;;3.13;100.00;98040.53;5085100;28;20094;-73
2021/04/03 05:03:20;;;;;;;43.72;11.13;;;;;;;3.23;100.00;98039.81;5071939;28;20041;-73
2021/04/03 05:05:46;;;;;;;44.05;12.20;;;;;;;3.17;100.00;98049.66;5072621;28;20052;-74
2021/04/03 05:08:14;;;;;;;36.50;11.45;;;;;;;3.21;100.00;98047.25;5072138;28;20102;-75
2021/04/03 05:10:40;;;;;;;44.25;12.23;;;;;;;3.15;100.00;98046.41;5072379;28;20041;-75
2021/04/03 05:13:06;;;;;;;38.95;11.40;;;;;;;3.17;100.00;98068.38;5072385;28;20492;-75
2021/04/03 05:15:32;;;;;;;52.70;12.02;;;;;;;3.19;100.00;98054.75;5069460;28;20055;-75
2021/04/03 05:17:58;;;;;;;40.15;12.05;;;;;;;3.14;100.00;98059.00;5070321;28;20419;-74
2021/04/03 05:20:24;;;;;;;55.60;12.38;;;;;;;3.14;100.00;98053.66;5071802;28;20044;-74
2021/04/03 05:22:50;;;;;;;50.25;12.18;;;;;;;3.17;100.00;98070.25;5071992;28;20036;-74
2021/04/03 05:25:16;;;;;;;40.92;11.95;;;;;;;3.07;100.00;98069.09;5071928;28;20114;-75
2021/04/03 05:27:42;;;;;;;45.83;12.20;;;;;;;3.12;100.00;98071.81;5072365;28;20484;-76
2021/04/03 05:30:10;;;;;;;40.67;11.93;;;;;;;3.17;100.00;98073.72;5070534;28;20171;-75
2021/04/03 05:32:36;;;;;;;45.45;11.70;;;;;;;3.15;100.00;98076.66;5067637;28;20044;-76
2021/04/03 05:35:03;;;;;;;48.20;12.30;;;;;;;3.15;100.00;98068.63;5072040;28;20048;-74
2021/04/03 05:37:29;;;;;;;39.42;11.00;;;;;;;3.16;100.00;98072.09;5071938;28;20052;-75
2021/04/03 05:39:56;;;;;;;40.67;12.27;;;;;;;3.17;100.00;98079.88;5078087;28;20040;-76
2021/04/03 05:42:22;;;;;;;32.55;10.93;;;;;;;3.10;100.00;98073.94;5076637;28;20103;-76
2021/04/03 05:44:49;;;;;;;42.13;11.07;;;;;;;3.23;100.00;98074.59;5077479;28;20076;-78
2021/04/03 05:47:16;;;;;;;38.58;11.55;;;;;;;3.20;100.00;98089.25;5075178;28;20068;-77
2021/04/03 05:49:43;;;;;;;36.22;11.05;;;;;;;3.18;100.00;98091.38;5096255;22;20043;-81
2021/04/03 05:52:10;;;;;;;39.67;10.68;;;;;;;3.36;100.00;98090.16;5078289;28;20047;-82
2021/04/03 05:54:39;;;;;;;54.00;12.40;;;;;;;3.55;100.00;98081.47;5095434;28;20035;-80
2021/04/03 05:57:06;;;;;;;33.38;10.57;;;;;;;3.56;100.00;98098.34;5097834;28;20044;-81
2021/04/03 05:59:35;;;;;;;36.03;11.00;;;;;;;3.36;100.00;98093.66;5096977;28;20039;-80
2021/04/03 06:02:06;;;;;;;45.08;11.57;;;;;;;3.28;100.00;98094.13;5079189;28;20048;-80
2021/04/03 06:04:32;;;;;;;38.90;11.27;;;;;;;3.39;100.00;98109.19;5079706;28;20075;-79
2021/04/03 06:07:01;;;;;;;37.03;11.68;;;;;;;3.28;100.00;98115.53;5076937;28;20044;-79
2021/04/03 06:09:28;;;;;;;42.42;11.75;;;;;;;3.19;100.00;98111.72;5079393;28;20056;-79
2021/04/03 06:11:55;;;;;;;46.03;12.77;;;;;;;3.17;100.00;98113.03;5077799;28;20045;-81
2021/04/03 06:14:21;;;;;;;31.95;12.52;;;;;;;3.13;100.00;98112.75;5078181;28;20314;-79
2021/04/03 06:16:51;;;;;;;41.75;12.55;;;;;;;2.97;100.00;98114.47;5041661;28;20048;-79
2021/04/03 06:19:19;;;;;;;51.13;13.30;;;;;;;2.97;100.00;98129.72;5085404;28;20407;-78
2021/04/03 06:22:03;;;;;;;45.47;11.88;;;;;;;2.95;100.00;98129.16;5058751;28;20101;-79
2021/04/03 06:24:37;;;;;;;54.55;12.73;;;;;;;3.00;100.00;98134.56;5040581;28;20083;-79
2021/04/03 06:27:09;;;;;;;44.92;13.35;;;;;;;3.01;100.00;98131.63;5041380;28;20052;-78
2021/04/03 06:29:41;;;;;;;47.65;13.25;;;;;;;3.09;100.00;98131.19;5040750;28;20040;-79
2021/04/03 06:32:10;;;;;;;45.75;12.75;;;;;;;3.17;100.00;98127.22;5075218;28;20131;-79
2021/04/03 06:34:39;;;;;;;39.78;11.95;;;;;;;3.17;100.00;98140.59;5074942;28;20127;-79
2021/04/03 06:37:09;;;;;;;46.72;11.30;;;;;;;3.22;100.00;98137.97;5074953;28;20110;-79
2021/04/03 06:40:12;;;;;;;50.30;13.98;;;;;;;3.22;100.00;98148.69;5039860;28;20057;-78
2021/04/03 06:42:47;;;;;;;52.47;12.88;;;;;;;3.22;100.00;98159.38;4973680;28;20588;-79
2021/04/03 06:45:34;;;;;;;49.05;12.27;;;;;;;3.17;100.00;98156.66;5044830;28;20114;-78
2021/04/03 06:48:03;;;;;;;48.38;13.10;;;;;;;3.09;100.00;98155.25;5075662;28;20053;-77
2021/04/03 06:50:33;;;;;;;47.65;13.77;;;;;;;2.92;100.00;98153.72;5073610;28;20102;-78
2021/04/03 06:53:06;;;;;;;44.33;13.57;;;;;;;3.04;100.00;98162.41;5054987;28;20651;-79
2021/04/03 06:55:34;;;;;;;47.90;12.60;;;;;;;3.07;100.00;98173.41;5075458;28;20420;-81
2021/04/03 06:58:03;;;;;;;41.63;13.10;;;;;;;3.07;100.00;98173.41;5060400;28;20049;-80
2021/04/03 07:00:32;;;;;;;51.10;13.40;;;;;;;2.97;100.00;98184.00;5067507;28;20040;-78
2021/04/03 07:03:01;;;;;;;66.22;14.00;;;;;;;2.93;100.00;98182.91;5094141;28;20044;-79
2021/04/03 07:05:32;;;;;;;51.58;13.40;;;;;;;3.01;100.00;98189.66;5068633;28;20047;-78
2021/04/03 07:08:04;;;;;;;51.08;13.10;;;;;;;2.96;100.00;98193.09;5071708;28;20051;-78
2021/04/03 07:10:31;;;;;;;47.72;13.20;;;;;;;2.99;100.00;98194.47;5072422;28;20035;-78
2021/04/03 07:13:00;;;;;;;49.10;14.55;;;;;;;3.08;100.00;98195.59;5080720;28;20524;-79
2021/04/03 07:15:30;;;;;;;45.88;13.13;;;;;;;3.04;100.00;98198.00;5043413;28;20508;-78
2021/04/03 07:18:00;;;;;;;43.67;12.43;;;;;;;3.03;100.00;98204.41;5078080;28;20056;-79
2021/04/03 07:20:30;;;;;;;43.83;13.38;;;;;;;3.10;100.00;98204.19;5066155;28;20416;-79
2021/04/03 07:23:08;;;;;;;46.47;12.85;;;;;;;3.14;100.00;98213.34;5047130;28;20060;-78
2021/04/03 07:25:38;;;;;;;45.70;13.25;;;;;;;3.19;100.00;98213.38;5067668;28;20047;-79
2021/04/03 07:28:06;;;;;;;40.67;12.18;;;;;;;3.33;100.00;98219.91;5082864;28;20247;-79
2021/04/03 07:30:32;;;;;;;34.05;11.63;;;;;;;3.37;100.00;98221.03;5064358;28;20040;-76
2021/04/03 07:33:18;;;;;;;38.97;11.00;;;;;;;3.43;100.00;98224.56;5062380;28;20043;-77
2021/04/03 07:35:44;;;;;;;41.72;11.55;;;;;;;3.36;100.00;98226.63;5076733;28;20064;-78
2021/04/03 07:38:13;;;;;;;44.13;11.77;;;;;;;3.50;100.00;98222.50;5067347;28;20048;-77
2021/04/03 07:40:43;;;;;;;38.53;10.75;;;;;;;3.47;100.00;98226.47;5063336;28;20372;-78
2021/04/03 07:43:32;;;;;;;37.78;10.60;;;;;;;3.52;100.00;98242.59;5091416;28;20494;-78
2021/04/03 07:46:06;;;;;;;42.50;11.65;;;;;;;3.57;100.00;98228.44;5091649;28;20562;-77
2021/04/03 07:48:38;;;;;;;37.60;10.95;;;;;;;3.53;100.00;98236.19;5089896;28;20054;-77
2021/04/03 07:51:05;;;;;;;38.65;11.13;;;;;;;3.47;100.00;98242.53;5071610;28;20062;-77
2021/04/03 07:53:43;;;;;;;49.00;12.15;;;;;;;3.38;100.00;98253.97;5106402;28;20043;-79
2021/04/03 07:56:11;;;;;;;57.08;13.50;;;;;;;3.25;100.00;98252.50;5053421;28;20060;-78
2021/04/03 07:58:47;;;;;;;51.35;14.85;;;;;;;3.26;100.00;98254.09;5088146;28;20515;-77
2021/04/03 08:01:26;;;;;;;51.75;14.57;;;;;;;3.47;100.00;98268.50;5088434;28;20101;-79
2021/04/03 08:03:58;;;;;;;;;;;;;;;3.57;100.00;98269.41;5091375;28;20051;-77
2021/04/03 08:06:31;;;;;;;52.40;16.48;;;;;;;3.44;100.00;98260.97;5070106;28;20031;-77
2021/04/03 08:08:58;;;;;;;65.60;17.52;;;;;;;3.26;100.00;98274.69;5086638;28;20059;-77
2021/04/03 08:11:26;;;;;;;60.15;17.45;;;;;;;3.28;100.00;98278.72;5097833;28;20043;-81
2021/04/03 08:13:55;;;;;;;53.15;16.33;;;;;;;3.41;100.00;98280.19;5091497;28;20363;-79
2021/04/03 08:16:22;;;;;;;66.22;18.30;;;;;;;3.29;100.00;98272.34;5091337;28;20056;-79
2021/04/03 08:18:50;;;;;;;54.75;16.50;;;;;;;3.06;100.00;98272.63;5090674;28;20054;-79
2021/04/03 08:21:17;;;;;;;72.05;19.02;;;;;;;3.12;100.00;98274.31;5062161;28;20064;-79
2021/04/03 08:23:51;;;;;;;59.05;15.77;;;;;;;3.17;100.00;98287.72;5069934;28;20044;-79
2021/04/03 08:26:19;;;;;;;54.15;14.95;;;;;;;3.13;100.00;98284.75;5053697;28;20058;-78
2021/04/03 08:28:46;;;;;;;55.78;15.65;;;;;;;3.28;100.00;98294.78;5054179;28;20044;-78
2021/04/03 08:31:24;;;;;;;53.78;15.15;;;;;;;3.23;100.00;98289.38;5070749;28;20052;-78
2021/04/03 08:33:55;;;;;;;60.72;14.50;;;;;;;3.21;100.00;98285.34;5070686;28;20606;-77
2021/04/03 08:36:24;;;;;;;58.95;15.50;;;;;;;3.27;100.00;98295.06;5069303;28;20048;-76
2021/04/03 08:38:52;;;;;;;50.95;15.13;;;;;;;3.26;100.00;98296.91;5053652;28;20063;-77
2021/04/03 08:41:20;;;;;;;50.35;15.52;;;;;;;3.33;100.00;98278.78;5071557;28;20124;-78
2021/04/03 08:43:48;;;;;;;60.13;15.63;;;;;;;3.48;100.00;98286.16;5087278;28;20356;-78
2021/04/03 08:46:14;;;;;;;45.10;15.38;;;;;;;3.52;100.00;98285.41;5052255;28;20560;-78
2021/04/03 08:48:45;;;;;;;59.95;18.70;;;;;;;3.52;100.00;98290.75;5087789;28;20052;-78
2021/04/03 08:51:12;;;;;;;79.00;26.20;;;;;;;3.49;100.00;98299.28;5056281;28;20403;-78
2021/04/03 08:53:47;;;;;;;78.53;29.13;;;;;;;3.55;100.00;98302.81;5092576;28;20047;-79
2021/04/03 08:56:33;;;;;;;87.03;33.75;;;;;;;3.45;100.00;98311.56;5054896;28;20048;-78
2021/04/03 08:59:02;;;;;;;112.35;39.88;;;;;;;3.46;100.00;98326.56;5074222;28;20052;-78
2021/04/03 09:01:35;;;;;;;104.50;38.65;;;;;;;3.34;100.00;98307.16;5080439;28;20047;-78
2021/04/03 09:04:06;;;;;;;106.22;38.88;;;;;;;3.46;100.00;98313.16;5075171;28;20059;-78
2021/04/03 09:06:38;;;;;;;109.05;38.28;;;;;;;3.62;100.00;98328.34;5058583;28;20059;-79
2021/04/03 09:09:10;;;;;;;97.95;37.95;;;;;;;3.71;100.00;98320.66;5085465;28;20393;-77
2021/04/03 09:11:38;;;;;;;82.82;32.95;;;;;;;3.60;100.00;98319.75;5067044;28;20052;-79
2021/04/03 09:14:04;;;;;;;77.47;29.08;;;;;;;3.59;100.00;98325.34;5116243;28;20044;-79
2021/04/03 09:16:38;;;;;;;75.03;27.10;;;;;;;3.59;100.00;98326.16;5078352;28;20055;-78
2021/04/03 09:19:05;;;;;;;83.97;27.88;;;;;;;3.70;100.00;98327.88;5079073;28;20052;-78
2021/04/03 09:21:31;;;;;;;68.72;26.95;;;;;;;3.85;100.00;98324.53;5095580;28;20174;-78
2021/04/03 09:23:57;;;;;;;73.07;28.08;;;;;;;4.04;100.00;98312.38;5093640;28;20043;-78
2021/04/03 09:26:34;;;;;;;68.32;26.35;;;;;;;4.39;100.00;98331.38;5096263;28;20039;-78
2021/04/03 09:29:09;;;;;;;61.92;22.05;;;;;;;4.35;100.00;98324.13;5116305;28;20043;-78
2021/04/03 09:31:45;;;;;;;50.70;17.52;;;;;;;4.82;100.00;98316.91;5105156;28;20422;-78
2021/04/03 09:34:17;;;;;;;41.28;15.63;;;;;;;5.16;100.00;98322.69;5091171;28;20085;-78
2021/04/03 09:36:50;;;;;;;42.58;13.15;;;;;;;5.52;100.00;98312.84;5056968;28;20044;-78
2021/04/03 09:39:19;;;;;;;38.40;13.85;;;;;;;6.17;100.00;98320.97;5073603;28;20043;-78
2021/04/03 09:41:54;;;;;;;42.55;13.18;;;;;;;6.30;100.00;98305.41;5091629;28;20352;-78
2021/04/03 09:44:20;;;;;;;27.70;11.00;;;;;;;6.90;100.00;98297.19;5073208;28;20162;-78
2021/04/03 09:46:48;;;;;;;35.22;9.75;;;;;;;6.65;100.00;98306.13;5071778;28;20059;-77
2021/04/03 09:49:17;;;;;;;31.00;7.78;;;;;;;6.22;100.00;98312.91;5056922;28;20109;-78
2021/04/03 09:51:44;;;;;;;28.30;8.57;;;;;;;6.54;100.00;98301.03;5064010;28;20131;-77
2021/04/03 09:54:13;;;;;;;23.27;6.13;;;;;;;6.97;100.00;98297.69;5099177;28;20046;-77
2021/04/03 09:56:49;;;;;;;20.60;6.13;;;;;;;7.18;100.00;98298.41;5088687;28;20040;-77
2021/04/03 09:59:16;;;;;;;20.05;6.22;;;;;;;7.58;100.00;98300.88;5067436;28;20263;-76
2021/04/03 10:01:47;;;;;;;22.77;5.97;;;;;;;8.49;100.00;98302.91;5072088;28;20043;-78
2021/04/03 10:04:23;;;;;;;19.40;4.93;;;;;;;7.62;100.00;98301.13;5067407;28;20040;-78
2021/04/03 10:06:54;;;;;;;18.10;4.75;;;;;;;7.23;100.00;98301.88;5065221;28;20051;-77
2021/04/03 10:09:20;;;;;;;18.27;4.38;;;;;;;7.19;100.00;98291.94;5069243;28;20383;-77
2021/04/03 10:11:57;;;;;;;20.25;5.07;;;;;;;7.83;100.00;98289.13;5071082;28;20070;-78
2021/04/03 10:14:25;;;;;;;23.33;5.72;;;;;;;8.69;100.00;98295.41;5085292;28;20047;-77
2021/04/03 10:16:51;;;;;;;19.48;4.55;;;;;;;8.57;100.00;98292.28;5082871;28;20064;-77
2021/04/03 10:19:18;;;;;;;19.00;4.60;;;;;;;9.24;100.00;98285.00;5080788;28;20155;-77
2021/04/03 10:21:58;;;;;;;17.70;4.45;;;;;;;8.57;100.00;98289.56;5049170;28;20326;-78
2021/04/03 10:24:24;;;;;;;16.52;4.90;;;;;;;8.59;100.00;98290.09;5077519;28;20041;-77
2021/04/03 10:26:51;;;;;;;14.55;4.40;;;;;;;9.31;100.00;98277.38;5062348;28;20352;-77
2021/04/03 10:29:24;;;;;;;13.82;4.18;;;;;;;9.53;100.00;98298.41;5095055;28;20044;-76
2021/04/03 10:31:52;;;;;;;12.80;3.63;;;;;;;10.88;100.00;98284.53;5090236;28;20185;-77
2021/04/03 10:34:18;;;;;;;12.43;4.20;;;;;;;10.35;100.00;98292.28;5076833;28;20047;-77
2021/04/03 10:36:44;;;;;;;13.38;3.92;;;;;;;9.73;100.00;98279.22;5098829;28;20044;-77
2021/04/03 10:39:10;;;;;;;12.45;2.80;;;;;;;8.63;100.00;98274.94;5066333;28;20048;-77
2021/04/03 10:41:39;;;;;;;11.07;3.78;;;;;;;7.93;100.00;98281.75;5060114;28;20112;-77
2021/04/03 10:44:08;;;;;;;15.32;3.78;;;;;;;10.21;100.00;98285.22;5081311;28;20062;-77
2021/04/03 10:46:43;;;;;;;9.82;3.40;;;;;;;10.24;99.35;98273.81;5078306;28;20045;-77
2021/04/03 10:49:10;;;;;;;13.68;2.83;;;;;;;11.26;73.19;98269.66;5121771;28;20043;-77
2021/04/03 10:51:44;;;;;;;11.15;2.83;;;;;;;11.14;70.34;98257.75;5117904;28;20039;-75
2021/04/03 10:54:17;;;;;;;8.45;2.63;;;;;;;8.93;71.34;98259.50;5086299;28;20058;-77
2021/04/03 10:56:50;;;;;;;8.02;2.20;;;;;;;10.59;63.96;98248.81;5081238;28;20123;-78
2021/04/03 10:59:16;;;;;;;7.88;2.10;;;;;;;11.72;55.73;98253.19;5064121;28;20041;-78
2021/04/03 11:01:42;;;;;;;20.30;4.53;;;;;;;13.18;52.56;98250.50;5077195;28;20040;-77
2021/04/03 11:04:11;;;;;;;7.90;1.80;;;;;;;14.08;46.52;98244.13;5078505;28;20510;-78
2021/04/03 11:06:37;;;;;;;7.55;1.77;;;;;;;11.89;47.57;98238.97;5092680;28;20047;-76
2021/04/03 11:09:04;;;;;;;5.22;1.90;;;;;;;10.15;51.38;98243.13;5118865;28;20635;-78
2021/04/03 11:11:32;;;;;;;8.05;1.77;;;;;;;8.82;54.94;98248.00;5124528;28;20063;-78
2021/04/03 11:13:58;;;;;;;7.22;2.08;;;;;;;8.57;58.96;98232.91;5123949;28;20063;-78
2021/04/03 11:16:26;;;;;;;10.82;1.83;;;;;;;8.20;63.70;98248.09;5097572;28;20051;-78
2021/04/03 11:18:53;;;;;;;9.13;2.13;;;;;;;8.13;67.98;98243.84;5097519;28;20119;-77
2021/04/03 11:21:20;;;;;;;5.30;1.73;;;;;;;8.14;69.90;98253.56;5117104;28;20040;-76
2021/04/03 11:23:46;;;;;;;5.82;1.83;;;;;;;8.47;71.63;98261.88;5095366;28;20044;-78
2021/04/03 11:26:12;;;;;;;5.43;1.45;;;;;;;8.23;74.64;98248.34;5110746;28;20050;-77
2021/04/03 11:28:38;;;;;;;7.85;1.70;;;;;;;7.87;78.94;98249.75;5117841;28;20048;-78